sensor_id;sensor_type;location;lat;lon;timestamp;pressure;altitude;pressure_sealevel;temperature;humidity
35435;BME280;21556;55.782;37.528;2023-07-29T00:01:48;98775.31;;;18.60;100.00
35435;BME280;21556;55.782;37.528;2023-07-29T00:04:17;98760.00;;;18.68;100.00
35435;BME280;21556;55.782;37.528;2023-07-29T00:06:45;98750.53;;;18.59;100.00
35435;BME280;21556;55.782;37.528;2023-07-29T00:09:11;98755.56;;;18.39;100.00
35435;BME280;21556;55.782;37.528;2023-07-29T00:11:38;98743.38;;;18.61;100.00
35435;BME280;21556;55.782;37.528;2023-07-29T00:14:07;98753.34;;;18.83;100.00
35435;BME280;21556;55.782;37.528;2023-07-29T00:16:37;98760.59;;;18.48;100.00
35435;BME280;21556;55.782;37.528;2023-07-29T00:19:08;98761.59;;;18.73;100.00
35435;BME280;21556;55.782;37.528;2023-07-29T00:21:36;98772.13;;;18.47;100.00
35435;BME280;21556;55.782;37.528;2023-07-29T00:24:03;98768.47;;;19.09;100.00
35435;BME280;21556;55.782;37.528;2023-07-29T00:26:30;98768.69;;;18.43;100.00
35435;BME280;21556;55.782;37.528;2023-07-29T00:28:57;98770.66;;;18.38;100.00
35435;BME280;21556;55.782;37.528;2023-07-29T00:31:24;98777.06;;;18.29;100.00
35435;BME280;21556;55.782;37.528;2023-07-29T00:33:50;98764.03;;;18.22;100.00
35435;BME280;21556;55.782;37.528;2023-07-29T00:36:23;98767.59;;;18.50;100.00
35435;BME280;21556;55.782;37.528;2023-07-29T00:38:50;98773.53;;;18.59;100.00
35435;BME280;21556;55.782;37.528;2023-07-29T00:41:21;98773.66;;;18.56;100.00
35435;BME280;21556;55.782;37.528;2023-07-29T00:43:51;98767.34;;;18.30;100.00
35435;BME280;21556;55.782;37.528;2023-07-29T00:46:17;98759.78;;;18.46;100.00
35435;BME280;21556;55.782;37.528;2023-07-29T00:48:47;98769.63;;;18.42;100.00
35435;BME280;21556;55.782;37.528;2023-07-29T00:51:14;98755.56;;;18.39;100.00
35435;BME280;21556;55.782;37.528;2023-07-29T00:53:41;98755.06;;;18.56;100.00
35435;BME280;21556;55.782;37.528;2023-07-29T00:56:13;98747.53;;;18.42;100.00
35435;BME280;21556;55.782;37.528;2023-07-29T00:58:45;98750.28;;;18.37;100.00
35435;BME280;21556;55.782;37.528;2023-07-29T01:01:13;98744.66;;;18.48;100.00
35435;BME280;21556;55.782;37.528;2023-07-29T01:03:39;98747.94;;;18.86;100.00
35435;BME280;21556;55.782;37.528;2023-07-29T01:09:04;98742.44;;;19.18;100.00
35435;BME280;21556;55.782;37.528;2023-07-29T01:16:32;98720.97;;;18.98;100.00
35435;BME280;21556;55.782;37.528;2023-07-29T01:19:03;98719.00;;;18.76;100.00
35435;BME280;21556;55.782;37.528;2023-07-29T01:21:31;98721.97;;;18.95;100.00
35435;BME280;21556;55.782;37.528;2023-07-29T01:24:00;98714.78;;;18.97;100.00
35435;BME280;21556;55.782;37.528;2023-07-29T01:26:27;98719.06;;;18.75;100.00
35435;BME280;21556;55.782;37.528;2023-07-29T01:28:55;98714.50;;;19.07;100.00
35435;BME280;21556;55.782;37.528;2023-07-29T01:31:34;98708.69;;;19.20;100.00
35435;BME280;21556;55.782;37.528;2023-07-29T01:34:13;98698.97;;;19.19;100.00
35435;BME280;21556;55.782;37.528;2023-07-29T01:36:43;98701.13;;;19.08;100.00
35435;BME280;21556;55.782;37.528;2023-07-29T01:39:11;98693.34;;;19.02;100.00
35435;BME280;21556;55.782;37.528;2023-07-29T01:41:46;98702.72;;;18.31;100.00
35435;BME280;21556;55.782;37.528;2023-07-29T01:44:16;98706.19;;;18.03;100.00
35435;BME280;21556;55.782;37.528;2023-07-29T01:46:43;98706.22;;;18.02;100.00
35435;BME280;21556;55.782;37.528;2023-07-29T01:49:10;98698.75;;;18.16;100.00
35435;BME280;21556;55.782;37.528;2023-07-29T01:51:38;98690.44;;;18.55;100.00
35435;BME280;21556;55.782;37.528;2023-07-29T01:54:05;98687.13;;;18.48;100.00
35435;BME280;21556;55.782;37.528;2023-07-29T01:56:33;98694.69;;;18.33;100.00
35435;BME280;21556;55.782;37.528;2023-07-29T01:58:59;98701.69;;;18.35;100.00
35435;BME280;21556;55.782;37.528;2023-07-29T02:01:28;98699.69;;;18.70;100.00
35435;BME280;21556;55.782;37.528;2023-07-29T02:03:55;98704.38;;;18.04;100.00
35435;BME280;21556;55.782;37.528;2023-07-29T02:06:22;98708.00;;;17.70;100.00
35435;BME280;21556;55.782;37.528;2023-07-29T02:08:52;98713.22;;;17.73;100.00
35435;BME280;21556;55.782;37.528;2023-07-29T02:11:19;98712.44;;;17.37;100.00
35435;BME280;21556;55.782;37.528;2023-07-29T02:13:54;98722.09;;;18.03;100.00
35435;BME280;21556;55.782;37.528;2023-07-29T02:16:21;98725.69;;;18.01;100.00
35435;BME280;21556;55.782;37.528;2023-07-29T02:18:50;98738.41;;;18.21;100.00
35435;BME280;21556;55.782;37.528;2023-07-29T02:21:18;98750.84;;;17.55;100.00
35435;BME280;21556;55.782;37.528;2023-07-29T02:23:48;98749.88;;;17.92;100.00
35435;BME280;21556;55.782;37.528;2023-07-29T02:26:14;98762.69;;;17.76;100.00
35435;BME280;21556;55.782;37.528;2023-07-29T02:28:40;98757.16;;;18.15;100.00
35435;BME280;21556;55.782;37.528;2023-07-29T02:33:38;98761.88;;;18.05;100.00
35435;BME280;21556;55.782;37.528;2023-07-29T02:36:04;98754.81;;;18.34;100.00
35435;BME280;21556;55.782;37.528;2023-07-29T02:38:33;98755.59;;;18.08;100.00
35435;BME280;21556;55.782;37.528;2023-07-29T02:41:00;98758.16;;;18.11;100.00
35435;BME280;21556;55.782;37.528;2023-07-29T02:43:26;98760.84;;;17.78;100.00
35435;BME280;21556;55.782;37.528;2023-07-29T02:45:53;98753.47;;;17.89;100.00
35435;BME280;21556;55.782;37.528;2023-07-29T02:48:21;98753.38;;;18.23;100.00
35435;BME280;21556;55.782;37.528;2023-07-29T02:50:50;98740.66;;;18.05;100.00
35435;BME280;21556;55.782;37.528;2023-07-29T02:53:17;98736.38;;;17.99;100.00
35435;BME280;21556;55.782;37.528;2023-07-29T02:55:43;98735.59;;;17.96;100.00
35435;BME280;21556;55.782;37.528;2023-07-29T02:58:10;98731.72;;;17.76;100.00
35435;BME280;21556;55.782;37.528;2023-07-29T03:00:36;98733.47;;;17.77;100.00
35435;BME280;21556;55.782;37.528;2023-07-29T03:03:03;98732.19;;;17.25;100.00
35435;BME280;21556;55.782;37.528;2023-07-29T03:05:29;98733.50;;;17.74;100.00
35435;BME280;21556;55.782;37.528;2023-07-29T03:07:56;98732.06;;;17.95;100.00
35435;BME280;21556;55.782;37.528;2023-07-29T03:10:23;98741.53;;;17.73;100.00
35435;BME280;21556;55.782;37.528;2023-07-29T03:12:48;98737.09;;;17.73;100.00
35435;BME280;21556;55.782;37.528;2023-07-29T03:15:23;98733.88;;;17.95;100.00
35435;BME280;21556;55.782;37.528;2023-07-29T03:17:50;98734.09;;;17.86;100.00
35435;BME280;21556;55.782;37.528;2023-07-29T03:20:16;98723.97;;;18.00;100.00
35435;BME280;21556;55.782;37.528;2023-07-29T03:22:44;98726.50;;;17.72;100.00
35435;BME280;21556;55.782;37.528;2023-07-29T03:25:14;98712.78;;;17.90;100.00
35435;BME280;21556;55.782;37.528;2023-07-29T03:27:40;98712.63;;;17.95;100.00
35435;BME280;21556;55.782;37.528;2023-07-29T03:30:08;98710.84;;;17.95;100.00
35435;BME280;21556;55.782;37.528;2023-07-29T03:32:34;98693.56;;;18.40;100.00
35435;BME280;21556;55.782;37.528;2023-07-29T03:35:00;98694.13;;;18.23;100.00
35435;BME280;21556;55.782;37.528;2023-07-29T03:37:26;98698.34;;;18.28;100.00
35435;BME280;21556;55.782;37.528;2023-07-29T03:39:54;98704.59;;;17.98;100.00
35435;BME280;21556;55.782;37.528;2023-07-29T03:42:21;98702.78;;;18.28;100.00
35435;BME280;21556;55.782;37.528;2023-07-29T03:44:50;98699.22;;;18.29;100.00
35435;BME280;21556;55.782;37.528;2023-07-29T03:47:17;98695.06;;;18.20;100.00
35435;BME280;21556;55.782;37.528;2023-07-29T03:49:47;98691.63;;;18.17;100.00
35435;BME280;21556;55.782;37.528;2023-07-29T03:52:18;98682.63;;;18.50;100.00
35435;BME280;21556;55.782;37.528;2023-07-29T03:54:45;98681.25;;;18.37;100.00
35435;BME280;21556;55.782;37.528;2023-07-29T03:57:13;98678.44;;;18.70;100.00
35435;BME280;21556;55.782;37.528;2023-07-29T03:59:42;98667.41;;;18.27;100.00
35435;BME280;21556;55.782;37.528;2023-07-29T04:02:08;98669.03;;;18.03;100.00
35435;BME280;21556;55.782;37.528;2023-07-29T04:04:34;98666.03;;;18.16;100.00
35435;BME280;21556;55.782;37.528;2023-07-29T04:16:39;98675.56;;;18.21;100.00
35435;BME280;21556;55.782;37.528;2023-07-29T04:19:21;98670.81;;;18.03;100.00
35435;BME280;21556;55.782;37.528;2023-07-29T04:21:48;98669.31;;;18.52;100.00
35435;BME280;21556;55.782;37.528;2023-07-29T04:24:16;98668.19;;;18.31;100.00
35435;BME280;21556;55.782;37.528;2023-07-29T04:26:42;98670.25;;;17.92;100.00
35435;BME280;21556;55.782;37.528;2023-07-29T04:29:09;98668.75;;;17.83;100.00
35435;BME280;21556;55.782;37.528;2023-07-29T04:31:38;98668.84;;;18.10;100.00
35435;BME280;21556;55.782;37.528;2023-07-29T04:34:05;98659.03;;;18.12;100.00
35435;BME280;21556;55.782;37.528;2023-07-29T04:36:36;98657.28;;;18.12;100.00
35435;BME280;21556;55.782;37.528;2023-07-29T04:39:02;98663.44;;;18.41;100.00
35435;BME280;21556;55.782;37.528;2023-07-29T04:41:28;98672.28;;;18.13;100.00
35435;BME280;21556;55.782;37.528;2023-07-29T04:43:54;98664.22;;;18.16;100.00
35435;BME280;21556;55.782;37.528;2023-07-29T04:46:21;98668.56;;;18.19;100.00
35435;BME280;21556;55.782;37.528;2023-07-29T04:48:47;98674.34;;;18.03;100.00
35435;BME280;21556;55.782;37.528;2023-07-29T04:51:14;98665.13;;;18.45;100.00
35435;BME280;21556;55.782;37.528;2023-07-29T04:53:42;98666.66;;;18.24;100.00
35435;BME280;21556;55.782;37.528;2023-07-29T04:56:08;98661.19;;;18.28;100.00
35435;BME280;21556;55.782;37.528;2023-07-29T04:58:34;98662.34;;;18.48;100.00
35435;BME280;21556;55.782;37.528;2023-07-29T05:01:01;98652.91;;;18.66;100.00
35435;BME280;21556;55.782;37.528;2023-07-29T05:03:29;98656.66;;;18.88;100.00
35435;BME280;21556;55.782;37.528;2023-07-29T05:05:57;98657.28;;;18.12;100.00
35435;BME280;21556;55.782;37.528;2023-07-29T05:08:26;98655.03;;;18.55;100.00
35435;BME280;21556;55.782;37.528;2023-07-29T05:10:52;98649.13;;;18.46;100.00
35435;BME280;21556;55.782;37.528;2023-07-29T05:13:18;98639.47;;;18.72;100.00
35435;BME280;21556;55.782;37.528;2023-07-29T05:15:49;98642.00;;;18.47;100.00
35435;BME280;21556;55.782;37.528;2023-07-29T05:18:16;98650.91;;;17.88;100.00
35435;BME280;21556;55.782;37.528;2023-07-29T05:20:44;98654.25;;;17.95;100.00
35435;BME280;21556;55.782;37.528;2023-07-29T05:23:16;98642.88;;;17.91;100.00
35435;BME280;21556;55.782;37.528;2023-07-29T05:25:45;98641.22;;;18.17;100.00
35435;BME280;21556;55.782;37.528;2023-07-29T05:28:12;98640.22;;;17.91;100.00
35435;BME280;21556;55.782;37.528;2023-07-29T05:30:38;98633.59;;;18.04;100.00
35435;BME280;21556;55.782;37.528;2023-07-29T05:33:08;98632.03;;;17.99;100.00
35435;BME280;21556;55.782;37.528;2023-07-29T05:35:34;98635.22;;;18.10;100.00
35435;BME280;21556;55.782;37.528;2023-07-29T05:38:02;98630.63;;;17.86;100.00
35435;BME280;21556;55.782;37.528;2023-07-29T05:40:33;98630.00;;;18.35;100.00
35435;BME280;21556;55.782;37.528;2023-07-29T05:43:00;98622.19;;;17.71;100.00
35435;BME280;21556;55.782;37.528;2023-07-29T05:45:26;98626.00;;;17.63;100.00
35435;BME280;21556;55.782;37.528;2023-07-29T05:47:52;98625.63;;;17.76;100.00
35435;BME280;21556;55.782;37.528;2023-07-29T05:50:19;98623.25;;;18.51;100.00
35435;BME280;21556;55.782;37.528;2023-07-29T05:52:48;98635.06;;;18.43;100.00
35435;BME280;21556;55.782;37.528;2023-07-29T05:55:19;98634.69;;;18.27;100.00
35435;BME280;21556;55.782;37.528;2023-07-29T05:57:46;98643.94;;;18.14;100.00
35435;BME280;21556;55.782;37.528;2023-07-29T06:00:12;98640.63;;;18.35;100.00
35435;BME280;21556;55.782;37.528;2023-07-29T06:02:39;98643.03;;;18.69;100.00
35435;BME280;21556;55.782;37.528;2023-07-29T06:05:09;98647.66;;;18.36;100.00
35435;BME280;21556;55.782;37.528;2023-07-29T06:07:37;98655.47;;;18.69;100.00
35435;BME280;21556;55.782;37.528;2023-07-29T06:10:03;98655.38;;;18.44;100.00
35435;BME280;21556;55.782;37.528;2023-07-29T06:12:30;98661.28;;;18.25;100.00
35435;BME280;21556;55.782;37.528;2023-07-29T06:14:57;98662.81;;;18.61;100.00
35435;BME280;21556;55.782;37.528;2023-07-29T06:17:32;98664.66;;;18.31;100.00
35435;BME280;21556;55.782;37.528;2023-07-29T06:20:12;98664.78;;;18.56;100.00
35435;BME280;21556;55.782;37.528;2023-07-29T06:22:38;98672.16;;;18.46;100.00
35435;BME280;21556;55.782;37.528;2023-07-29T06:25:09;98677.19;;;18.25;100.00
35435;BME280;21556;55.782;37.528;2023-07-29T06:27:35;98678.72;;;18.34;100.00
35435;BME280;21556;55.782;37.528;2023-07-29T06:30:02;98685.34;;;18.49;100.00
35435;BME280;21556;55.782;37.528;2023-07-29T06:32:40;98689.88;;;18.45;100.00
35435;BME280;21556;55.782;37.528;2023-07-29T06:35:31;98689.28;;;18.36;100.00
35435;BME280;21556;55.782;37.528;2023-07-29T06:38:41;98683.81;;;18.40;100.00
35435;BME280;21556;55.782;37.528;2023-07-29T06:42:00;98702.88;;;18.25;100.00
35435;BME280;21556;55.782;37.528;2023-07-29T06:44:28;98694.81;;;18.86;100.00
35435;BME280;21556;55.782;37.528;2023-07-29T06:47:35;98693.16;;;18.82;100.00
35435;BME280;21556;55.782;37.528;2023-07-29T06:50:04;98698.53;;;18.52;100.00
35435;BME280;21556;55.782;37.528;2023-07-29T06:52:31;98704.34;;;18.35;100.00
35435;BME280;21556;55.782;37.528;2023-07-29T06:55:04;98699.38;;;18.52;100.00
35435;BME280;21556;55.782;37.528;2023-07-29T06:57:38;98706.94;;;18.37;100.00
35435;BME280;21556;55.782;37.528;2023-07-29T07:00:14;98706.41;;;18.25;100.00
35435;BME280;21556;55.782;37.528;2023-07-29T07:03:00;98696.06;;;18.46;100.00
35435;BME280;21556;55.782;37.528;2023-07-29T07:05:35;98706.84;;;18.40;100.00
35435;BME280;21556;55.782;37.528;2023-07-29T07:08:06;98716.78;;;18.33;100.00
35435;BME280;21556;55.782;37.528;2023-07-29T07:10:32;98714.47;;;18.52;100.00
35435;BME280;21556;55.782;37.528;2023-07-29T07:13:18;98718.78;;;18.55;100.00
35435;BME280;21556;55.782;37.528;2023-07-29T07:15:54;98725.28;;;18.44;100.00
35435;BME280;21556;55.782;37.528;2023-07-29T07:18:53;98721.31;;;17.67;100.00
35435;BME280;21556;55.782;37.528;2023-07-29T07:22:25;98719.34;;;17.77;100.00
35435;BME280;21556;55.782;37.528;2023-07-29T07:25:11;98717.47;;;17.80;100.00
35435;BME280;21556;55.782;37.528;2023-07-29T07:27:38;98718.31;;;17.81;100.00
35435;BME280;21556;55.782;37.528;2023-07-29T07:30:10;98711.72;;;17.96;100.00
35435;BME280;21556;55.782;37.528;2023-07-29T07:32:39;98717.94;;;18.24;100.00
35435;BME280;21556;55.782;37.528;2023-07-29T07:35:07;98707.72;;;18.40;100.00
35435;BME280;21556;55.782;37.528;2023-07-29T07:37:40;98709.25;;;18.47;100.00
35435;BME280;21556;55.782;37.528;2023-07-29T07:40:06;98711.91;;;18.49;100.00
35435;BME280;21556;55.782;37.528;2023-07-29T07:42:33;98709.19;;;18.50;100.00
35435;BME280;21556;55.782;37.528;2023-07-29T07:45:00;98712.78;;;18.78;100.00
35435;BME280;21556;55.782;37.528;2023-07-29T07:47:25;98715.44;;;18.20;100.00
35435;BME280;21556;55.782;37.528;2023-07-29T07:49:53;98712.06;;;18.43;100.00
35435;BME280;21556;55.782;37.528;2023-07-29T07:52:19;98718.66;;;18.29;100.00
35435;BME280;21556;55.782;37.528;2023-07-29T07:54:46;98716.69;;;18.36;100.00
35435;BME280;21556;55.782;37.528;2023-07-29T07:57:19;98724.28;;;17.89;100.00
35435;BME280;21556;55.782;37.528;2023-07-29T07:59:50;98719.19;;;18.13;100.00
35435;BME280;21556;55.782;37.528;2023-07-29T08:02:20;98717.50;;;18.10;100.00
35435;BME280;21556;55.782;37.528;2023-07-29T08:04:47;98723.19;;;17.96;100.00
35435;BME280;21556;55.782;37.528;2023-07-29T08:07:13;98726.41;;;17.75;100.00
35435;BME280;21556;55.782;37.528;2023-07-29T08:09:40;98729.47;;;17.61;100.00
35435;BME280;21556;55.782;37.528;2023-07-29T08:12:06;98721.00;;;18.11;100.00
35435;BME280;21556;55.782;37.528;2023-07-29T08:14:32;98721.44;;;18.26;100.00
35435;BME280;21556;55.782;37.528;2023-07-29T08:17:01;98732.00;;;18.28;100.00
35435;BME280;21556;55.782;37.528;2023-07-29T08:19:28;98731.53;;;18.14;100.00
35435;BME280;21556;55.782;37.528;2023-07-29T08:21:54;98726.50;;;18.34;100.00
35435;BME280;21556;55.782;37.528;2023-07-29T08:24:19;98720.13;;;18.40;100.00
35435;BME280;21556;55.782;37.528;2023-07-29T08:26:46;98717.91;;;18.54;100.00
35435;BME280;21556;55.782;37.528;2023-07-29T08:29:14;98726.75;;;18.26;100.00
35435;BME280;21556;55.782;37.528;2023-07-29T08:31:42;98732.84;;;18.30;100.00
35435;BME280;21556;55.782;37.528;2023-07-29T08:34:08;98724.13;;;18.25;100.00
35435;BME280;21556;55.782;37.528;2023-07-29T08:36:34;98731.91;;;18.31;100.00
35435;BME280;21556;55.782;37.528;2023-07-29T08:39:00;98729.34;;;18.28;100.00
35435;BME280;21556;55.782;37.528;2023-07-29T08:42:12;98736.06;;;18.40;100.00
35435;BME280;21556;55.782;37.528;2023-07-29T08:44:23;98722.13;;;18.61;100.00
35435;BME280;21556;55.782;37.528;2023-07-29T08:46:51;98730.59;;;18.44;100.00
35435;BME280;21556;55.782;37.528;2023-07-29T08:49:19;98724.41;;;18.73;100.00
35435;BME280;21556;55.782;37.528;2023-07-29T08:51:46;98724.84;;;18.88;100.00
35435;BME280;21556;55.782;37.528;2023-07-29T08:54:15;98723.16;;;18.85;100.00
35435;BME280;21556;55.782;37.528;2023-07-29T08:56:41;98714.22;;;19.14;100.00
35435;BME280;21556;55.782;37.528;2023-07-29T08:59:09;98722.41;;;19.08;100.00
35435;BME280;21556;55.782;37.528;2023-07-29T09:01:39;98718.56;;;19.17;100.00
35435;BME280;21556;55.782;37.528;2023-07-29T09:04:06;98727.56;;;19.13;100.00
35435;BME280;21556;55.782;37.528;2023-07-29T09:06:34;98716.16;;;19.09;100.00
35435;BME280;21556;55.782;37.528;2023-07-29T09:09:00;98714.63;;;19.02;100.00
35435;BME280;21556;55.782;37.528;2023-07-29T09:11:27;98720.84;;;18.74;100.00
35435;BME280;21556;55.782;37.528;2023-07-29T09:13:52;98713.66;;;19.05;100.00
35435;BME280;21556;55.782;37.528;2023-07-29T09:16:21;98716.66;;;19.20;100.00
35435;BME280;21556;55.782;37.528;2023-07-29T09:18:50;98714.16;;;19.16;100.00
35435;BME280;21556;55.782;37.528;2023-07-29T09:21:25;98717.78;;;18.87;100.00
35435;BME280;21556;55.782;37.528;2023-07-29T09:23:52;98712.16;;;19.22;100.00
35435;BME280;21556;55.782;37.528;2023-07-29T09:26:25;98718.41;;;18.95;100.00
35435;BME280;21556;55.782;37.528;2023-07-29T09:28:52;98719.31;;;18.95;100.00
35435;BME280;21556;55.782;37.528;2023-07-29T09:31:21;98728.00;;;18.99;100.00
35435;BME280;21556;55.782;37.528;2023-07-29T09:33:57;98730.31;;;18.83;100.00
35435;BME280;21556;55.782;37.528;2023-07-29T09:36:24;98731.03;;;19.15;100.00
35435;BME280;21556;55.782;37.528;2023-07-29T09:38:56;98721.63;;;19.31;100.00
35435;BME280;21556;55.782;37.528;2023-07-29T09:41:25;98723.78;;;19.20;100.00
35435;BME280;21556;55.782;37.528;2023-07-29T09:43:59;98732.25;;;19.05;100.00
35435;BME280;21556;55.782;37.528;2023-07-29T09:46:25;98737.75;;;19.00;100.00
35435;BME280;21556;55.782;37.528;2023-07-29T09:48:56;98727.78;;;19.32;100.00
35435;BME280;21556;55.782;37.528;2023-07-29T09:51:23;98722.34;;;19.61;100.00
35435;BME280;21556;55.782;37.528;2023-07-29T09:53:49;98723.38;;;19.57;100.00
35435;BME280;21556;55.782;37.528;2023-07-29T09:56:15;98735.63;;;19.63;100.00
35435;BME280;21556;55.782;37.528;2023-07-29T09:58:44;98735.03;;;19.53;100.00
35435;BME280;21556;55.782;37.528;2023-07-29T10:01:11;98736.22;;;19.44;100.00
35435;BME280;21556;55.782;37.528;2023-07-29T10:03:37;98742.13;;;19.01;100.00
35435;BME280;21556;55.782;37.528;2023-07-29T10:06:03;98725.50;;;19.47;100.00
35435;BME280;21556;55.782;37.528;2023-07-29T10:08:30;98727.88;;;19.55;100.00
35435;BME280;21556;55.782;37.528;2023-07-29T10:10:59;98727.97;;;19.52;100.00
35435;BME280;21556;55.782;37.528;2023-07-29T10:13:25;98725.97;;;19.59;100.00
35435;BME280;21556;55.782;37.528;2023-07-29T10:15:51;98735.06;;;19.27;100.00
35435;BME280;21556;55.782;37.528;2023-07-29T10:18:19;98730.88;;;19.19;100.00
35435;BME280;21556;55.782;37.528;2023-07-29T10:20:46;98743.28;;;19.45;100.00
35435;BME280;21556;55.782;37.528;2023-07-29T10:23:13;98735.66;;;19.61;100.00
35435;BME280;21556;55.782;37.528;2023-07-29T10:25:43;98737.28;;;19.39;100.00
35435;BME280;21556;55.782;37.528;2023-07-29T10:28:14;98743.81;;;19.30;100.00
35435;BME280;21556;55.782;37.528;2023-07-29T10:30:41;98744.31;;;19.41;100.00
35435;BME280;21556;55.782;37.528;2023-07-29T10:33:08;98748.06;;;19.09;100.00
35435;BME280;21556;55.782;37.528;2023-07-29T10:35:39;98755.69;;;18.93;100.00
35435;BME280;21556;55.782;37.528;2023-07-29T10:38:06;98757.13;;;19.04;100.00
35435;BME280;21556;55.782;37.528;2023-07-29T10:43:11;98752.34;;;19.40;100.00
35435;BME280;21556;55.782;37.528;2023-07-29T10:45:37;98759.13;;;19.48;100.00
35435;BME280;21556;55.782;37.528;2023-07-29T10:48:10;98750.50;;;19.42;100.00
35435;BME280;21556;55.782;37.528;2023-07-29T10:50:36;98753.53;;;19.31;100.00
35435;BME280;21556;55.782;37.528;2023-07-29T10:53:02;98743.13;;;19.25;100.00
35435;BME280;21556;55.782;37.528;2023-07-29T10:55:35;98733.81;;;19.63;100.00
35435;BME280;21556;55.782;37.528;2023-07-29T10:58:07;98732.16;;;19.59;100.00
35435;BME280;21556;55.782;37.528;2023-07-29T11:00:36;98732.81;;;19.41;100.00
35435;BME280;21556;55.782;37.528;2023-07-29T11:03:02;98733.38;;;19.51;100.00
35435;BME280;21556;55.782;37.528;2023-07-29T11:05:48;98733.72;;;19.66;100.00
35435;BME280;21556;55.782;37.528;2023-07-29T11:08:15;98736.03;;;19.51;100.00
35435;BME280;21556;55.782;37.528;2023-07-29T11:10:42;98734.25;;;18.98;100.00
35435;BME280;21556;55.782;37.528;2023-07-29T11:13:13;98733.00;;;19.61;100.00
35435;BME280;21556;55.782;37.528;2023-07-29T11:15:39;98732.47;;;19.77;100.00
35435;BME280;21556;55.782;37.528;2023-07-29T11:18:05;98734.16;;;19.53;100.00
35435;BME280;21556;55.782;37.528;2023-07-29T11:20:34;98742.28;;;19.75;100.00
35435;BME280;21556;55.782;37.528;2023-07-29T11:23:00;98741.38;;;19.76;100.00
35435;BME280;21556;55.782;37.528;2023-07-29T11:25:27;98731.03;;;19.91;100.00
35435;BME280;21556;55.782;37.528;2023-07-29T11:27:57;98734.41;;;19.46;100.00
35435;BME280;21556;55.782;37.528;2023-07-29T11:30:23;98748.34;;;19.53;100.00
35435;BME280;21556;55.782;37.528;2023-07-29T11:32:53;98741.44;;;19.47;100.00
35435;BME280;21556;55.782;37.528;2023-07-29T11:35:18;98746.53;;;19.29;100.00
35435;BME280;21556;55.782;37.528;2023-07-29T11:37:47;98744.50;;;19.62;100.00
35435;BME280;21556;55.782;37.528;2023-07-29T11:40:21;98741.91;;;19.85;100.00
35435;BME280;21556;55.782;37.528;2023-07-29T11:42:49;98749.00;;;20.10;100.00
35435;BME280;21556;55.782;37.528;2023-07-29T11:45:18;98755.06;;;20.13;100.00
35435;BME280;21556;55.782;37.528;2023-07-29T11:47:46;98769.81;;;19.99;100.00
35435;BME280;21556;55.782;37.528;2023-07-29T11:50:13;98756.69;;;19.94;100.00
35435;BME280;21556;55.782;37.528;2023-07-29T11:52:40;98765.28;;;20.01;100.00
35435;BME280;21556;55.782;37.528;2023-07-29T11:55:06;98768.38;;;19.65;100.00
35435;BME280;21556;55.782;37.528;2023-07-29T11:57:34;98769.63;;;19.80;100.00
35435;BME280;21556;55.782;37.528;2023-07-29T12:00:04;98779.91;;;19.37;100.00
35435;BME280;21556;55.782;37.528;2023-07-29T12:02:37;98781.63;;;18.85;100.00
35435;BME280;21556;55.782;37.528;2023-07-29T12:05:04;98779.09;;;19.09;100.00
35435;BME280;21556;55.782;37.528;2023-07-29T12:07:30;98779.16;;;19.07;100.00
35435;BME280;21556;55.782;37.528;2023-07-29T12:09:56;98776.81;;;19.24;100.00
35435;BME280;21556;55.782;37.528;2023-07-29T12:12:22;98773.28;;;19.51;100.00
35435;BME280;21556;55.782;37.528;2023-07-29T12:14:48;98772.34;;;19.52;100.00
35435;BME280;21556;55.782;37.528;2023-07-29T12:17:16;98770.91;;;19.68;100.00
35435;BME280;21556;55.782;37.528;2023-07-29T12:19:44;98772.34;;;19.52;100.00
35435;BME280;21556;55.782;37.528;2023-07-29T12:22:11;98768.91;;;19.48;100.00
35435;BME280;21556;55.782;37.528;2023-07-29T12:24:37;98765.59;;;19.68;100.00
35435;BME280;21556;55.782;37.528;2023-07-29T12:27:04;98757.13;;;19.55;100.00
35435;BME280;21556;55.782;37.528;2023-07-29T12:29:30;98762.34;;;19.33;100.00
35435;BME280;21556;55.782;37.528;2023-07-29T12:32:00;98762.72;;;19.47;100.00
35435;BME280;21556;55.782;37.528;2023-07-29T12:34:28;98756.34;;;19.27;100.00
35435;BME280;21556;55.782;37.528;2023-07-29T12:36:55;98753.91;;;19.45;100.00
35435;BME280;21556;55.782;37.528;2023-07-29T12:39:25;98752.19;;;19.44;100.00
35435;BME280;21556;55.782;37.528;2023-07-29T12:41:52;98760.88;;;19.49;100.00
35435;BME280;21556;55.782;37.528;2023-07-29T12:44:20;98755.97;;;19.64;100.00
35435;BME280;21556;55.782;37.528;2023-07-29T12:46:47;98754.94;;;19.68;100.00
35435;BME280;21556;55.782;37.528;2023-07-29T12:49:17;98760.84;;;19.51;100.00
35435;BME280;21556;55.782;37.528;2023-07-29T12:51:42;98751.06;;;19.52;100.00
35435;BME280;21556;55.782;37.528;2023-07-29T12:54:08;98747.88;;;19.67;100.00
35435;BME280;21556;55.782;37.528;2023-07-29T12:56:34;98752.84;;;19.51;100.00
35435;BME280;21556;55.782;37.528;2023-07-29T12:59:00;98749.25;;;19.52;100.00
35435;BME280;21556;55.782;37.528;2023-07-29T13:01:26;98748.78;;;19.41;100.00
35435;BME280;21556;55.782;37.528;2023-07-29T13:03:52;98752.59;;;19.06;100.00
35435;BME280;21556;55.782;37.528;2023-07-29T13:06:19;98742.16;;;19.79;100.00
35435;BME280;21556;55.782;37.528;2023-07-29T13:08:45;98751.84;;;19.80;100.00
35435;BME280;21556;55.782;37.528;2023-07-29T13:11:11;98749.19;;;19.80;100.00
35435;BME280;21556;55.782;37.528;2023-07-29T13:13:37;98748.28;;;19.55;100.00